Time;durP1;ratioP1;P1;durP2;ratioP2;P2;SDS_P1;SDS_P2;PMS_P1;PMS_P2;Temp;Humidity;BMP_temperature;BMP_pressure;BME280_temperature;BME280_humidity;BME280_pressure;Samples;Min_cycle;Max_cycle;Signal;HPM_P1;HPM_P2
2023/11/01 00:00:53;;;;;;;18.20;7.50;;;;;;;13.92;87.92;98435.11;107695;1254;60320;-37
2023/11/01 00:03:20;;;;;;;15.50;7.40;;;;;;;13.91;88.01;98434.17;107738;1255;60018;-37
2023/11/01 00:05:48;;;;;;;17.20;7.10;;;;;;;13.86;88.07;98430.48;107695;1256;73934;-37
2023/11/01 00:08:16;;;;;;;13.80;6.30;;;;;;;13.86;88.14;98422.62;107722;1254;67871;-37
2023/11/01 00:10:45;;;;;;;15.30;6.70;;;;;;;13.89;88.11;98418.00;107689;1252;71795;-37
2023/11/01 00:13:12;;;;;;;16.50;7.20;;;;;;;13.88;88.11;98421.36;107689;1254;60422;-37
2023/11/01 00:15:40;;;;;;;19.60;7.40;;;;;;;13.85;88.30;98419.37;107635;1254;60832;-37
2023/11/01 00:18:08;;;;;;;14.10;7.00;;;;;;;13.81;88.29;98420.25;107691;1251;73965;-37
2023/11/01 00:20:35;;;;;;;16.90;6.50;;;;;;;13.84;88.40;98428.40;107647;1255;67733;-37
2023/11/01 00:23:03;;;;;;;14.50;6.80;;;;;;;13.88;88.24;98436.00;107576;1256;72677;-37
2023/11/01 00:25:30;;;;;;;20.60;7.80;;;;;;;13.87;88.31;98440.92;107549;1254;60422;-37
2023/11/01 00:27:58;;;;;;;13.90;7.40;;;;;;;13.82;88.65;98442.74;107650;1254;59578;-37
2023/11/01 00:30:26;;;;;;;13.70;6.70;;;;;;;13.81;88.72;98439.88;107781;1251;72621;-37
2023/11/01 00:32:55;;;;;;;18.70;8.50;;;;;;;13.81;88.82;98444.46;107530;1254;67574;-37
2023/11/01 00:35:23;;;;;;;18.40;7.10;;;;;;;13.76;89.13;98440.23;107497;1254;72675;-37
2023/11/01 00:37:50;;;;;;;13.70;6.90;;;;;;;13.70;89.31;98441.92;107675;1252;61720;-37
2023/11/01 00:40:19;;;;;;;13.40;6.30;;;;;;;13.70;89.34;98439.59;107420;1251;59862;-37
2023/11/01 00:42:46;;;;;;;18.50;7.00;;;;;;;13.71;89.37;98436.23;107606;1251;73848;-37
2023/11/01 00:45:14;;;;;;;19.10;8.20;;;;;;;13.70;89.59;98430.02;107477;1254;67742;-37
2023/11/01 00:47:42;;;;;;;15.00;8.80;;;;;;;13.65;89.95;98425.31;107526;1254;72656;-37
2023/11/01 00:50:09;;;;;;;17.00;7.40;;;;;;;13.63;90.07;98421.74;107611;1254;61779;-37
2023/11/01 00:52:37;;;;;;;16.80;7.00;;;;;;;13.68;89.66;98424.20;107623;1251;60431;-37
2023/11/01 00:55:05;;;;;;;17.50;8.10;;;;;;;13.71;89.68;98426.19;107603;1254;73661;-37
2023/11/01 00:57:33;;;;;;;17.20;8.00;;;;;;;13.70;89.87;98425.58;107596;1257;67100;-37
2023/11/01 01:00:01;;;;;;;17.60;7.90;;;;;;;13.67;90.03;98414.08;107513;1254;72767;-37
2023/11/01 01:02:29;;;;;;;14.50;6.80;;;;;;;13.69;89.85;98414.30;107472;1254;60400;-37
2023/11/01 01:04:57;;;;;;;19.10;8.00;;;;;;;13.73;89.61;98405.02;107631;1253;60511;-37
2023/11/01 01:07:25;;;;;;;18.70;8.70;;;;;;;13.72;89.69;98402.67;107371;1253;73677;-37
2023/11/01 01:09:52;;;;;;;19.30;8.60;;;;;;;13.69;89.80;98411.34;107416;1254;67534;-37
2023/11/01 01:12:20;;;;;;;19.00;7.70;;;;;;;13.68;89.67;98408.78;107371;1254;72691;-37
2023/11/01 01:14:48;;;;;;;16.70;7.70;;;;;;;13.73;89.61;98407.33;107583;1253;60843;-37
2023/11/01 01:17:15;;;;;;;17.30;7.70;;;;;;;13.76;89.54;98408.70;107492;1254;60511;-37
2023/11/01 01:19:43;;;;;;;18.10;9.00;;;;;;;13.71;89.68;98402.30;107492;1257;73848;-37
2023/11/01 01:22:10;;;;;;;17.70;8.00;;;;;;;13.66;90.01;98410.89;107445;1254;67761;-37
2023/11/01 01:24:38;;;;;;;18.90;8.00;;;;;;;13.65;90.30;98406.02;107494;1254;71991;-37
2023/11/01 01:27:06;;;;;;;18.60;8.50;;;;;;;13.64;90.20;98404.39;107492;1257;59733;-37
2023/11/01 01:29:33;;;;;;;14.90;8.50;;;;;;;13.59;90.45;98411.59;107421;1257;60415;-37
2023/11/01 01:32:01;;;;;;;20.00;9.40;;;;;;;13.54;90.85;98407.12;107401;1254;73858;-37
2023/11/01 01:34:28;;;;;;;16.60;8.00;;;;;;;13.52;90.90;98400.68;107397;1254;66984;-37
2023/11/01 01:36:56;;;;;;;17.70;8.00;;;;;;;13.57;90.95;98407.94;107409;1257;72683;-37
2023/11/01 01:39:24;;;;;;;19.20;8.60;;;;;;;13.58;91.19;98406.85;107610;1253;60389;-37
2023/11/01 01:41:51;;;;;;;19.20;9.60;;;;;;;13.56;91.52;98406.64;107378;1254;60300;-37
2023/11/01 01:44:19;;;;;;;17.80;8.00;;;;;;;13.56;91.55;98405.46;107446;1254;73829;-37
2023/11/01 01:46:46;;;;;;;22.70;8.30;;;;;;;13.62;91.59;98400.75;107471;1254;67601;-37
2023/11/01 01:49:14;;;;;;;21.80;9.80;;;;;;;13.67;91.53;98395.71;107439;1254;71450;-37
2023/11/01 01:51:41;;;;;;;21.40;9.60;;;;;;;13.66;91.77;98396.11;107478;1254;60367;-37
2023/11/01 01:54:10;;;;;;;16.60;8.50;;;;;;;13.64;91.91;98398.86;107324;1254;60376;-37
2023/11/01 01:56:37;;;;;;;19.40;8.50;;;;;;;13.68;91.92;98406.45;107563;1255;73855;-37
2023/11/01 01:59:05;;;;;;;20.80;9.10;;;;;;;13.73;91.60;98405.00;107377;1253;65935;-37
2023/11/01 02:01:32;;;;;;;26.60;9.90;;;;;;;13.73;91.57;98407.48;107280;1254;72645;-38
2023/11/01 02:04:12;;;;;;;19.10;8.40;;;;;;;13.73;91.59;98407.89;107464;1254;61567;-37
2023/11/01 02:06:40;;;;;;;20.60;8.70;;;;;;;13.79;91.34;98406.97;107489;1253;60413;-37
2023/11/01 02:09:15;;;;;;;22.90;9.80;;;;;;;13.84;91.04;98398.77;107410;1253;72561;-37
2023/11/01 02:11:44;;;;;;;20.00;9.50;;;;;;;13.83;91.16;98398.92;107462;1257;66584;-37
2023/11/01 02:14:13;;;;;;;16.80;8.70;;;;;;;13.81;91.10;98401.66;107328;1253;72474;-37
2023/11/01 02:16:41;;;;;;;14.80;7.90;;;;;;;13.84;90.91;98394.46;107557;1253;60557;-38
2023/11/01 02:19:08;;;;;;;17.10;9.10;;;;;;;13.87;90.57;98399.02;107340;1253;207453;-37
2023/11/01 02:22:55;;;;;;;21.40;10.20;;;;;;;13.90;90.36;98388.73;104096;1292;600241;-37
2023/11/01 02:25:23;;;;;;;16.90;8.90;;;;;;;13.85;90.19;98382.94;106485;1267;61707;-36
2023/11/01 02:27:51;;;;;;;18.70;9.00;;;;;;;13.93;89.78;98383.56;106635;1267;59228;-37
2023/11/01 02:30:19;;;;;;;17.90;9.30;;;;;;;13.92;89.49;98382.94;106642;1267;72252;-36
2023/11/01 02:32:47;;;;;;;20.90;9.60;;;;;;;13.87;89.51;98383.38;106686;1271;66071;-37
2023/11/01 02:35:16;;;;;;;18.40;8.30;;;;;;;13.83;89.59;98382.80;106665;1267;72677;-37
2023/11/01 02:37:43;;;;;;;17.70;8.60;;;;;;;13.85;89.34;98383.95;106641;1267;145381;-37
2023/11/01 02:40:11;;;;;;;17.60;9.20;;;;;;;13.87;89.15;98392.34;106759;1264;60008;-37
2023/11/01 02:42:43;;;;;;;18.40;10.00;;;;;;;13.82;89.37;98392.07;106780;1269;72708;-37
2023/11/01 02:45:11;;;;;;;17.10;9.10;;;;;;;13.78;89.71;98391.97;106810;1269;66634;-37
2023/11/01 02:47:40;;;;;;;14.30;8.10;;;;;;;13.78;89.84;98383.79;106863;1264;71434;-37
2023/11/01 02:50:09;;;;;;;18.80;9.80;;;;;;;13.79;89.73;98385.17;106754;1264;59602;-37
2023/11/01 02:52:40;;;;;;;14.20;7.60;;;;;;;13.77;89.79;98384.11;106849;1263;60076;-37
2023/11/01 02:55:12;;;;;;;20.80;9.70;;;;;;;13.74;89.94;98381.80;106770;1270;73027;-37
2023/11/01 02:57:39;;;;;;;21.60;8.10;;;;;;;13.77;89.93;98380.37;106792;1264;67907;-37
2023/11/01 03:00:08;;;;;;;18.30;9.20;;;;;;;13.84;89.79;98378.20;106786;1267;71395;-37
2023/11/01 03:02:36;;;;;;;19.90;9.90;;;;;;;13.86;89.70;98372.80;106845;1264;59596;-37
2023/11/01 03:05:08;;;;;;;17.60;10.40;;;;;;;13.85;89.64;98370.79;106625;1269;60193;-37
2023/11/01 03:07:36;;;;;;;18.20;9.30;;;;;;;13.84;89.69;98368.55;106802;1269;73068;-37
2023/11/01 03:10:05;;;;;;;20.70;8.80;;;;;;;13.86;89.41;98359.10;106739;1269;67589;-37
2023/11/01 03:12:32;;;;;;;20.20;10.10;;;;;;;13.90;89.18;98353.61;106656;1270;72775;-37
2023/11/01 03:15:00;;;;;;;19.90;10.60;;;;;;;13.89;89.21;98348.89;106734;1269;60573;-37
2023/11/01 03:17:27;;;;;;;16.20;9.00;;;;;;;13.85;89.27;98345.88;106736;1269;60035;-37
2023/11/01 03:19:55;;;;;;;19.50;9.20;;;;;;;13.86;89.13;98349.92;106749;1264;73055;-37
2023/11/01 03:22:23;;;;;;;18.60;9.20;;;;;;;13.90;89.03;98342.64;106738;1269;66299;-37
2023/11/01 03:24:51;;;;;;;16.90;9.90;;;;;;;13.89;88.86;98341.41;106716;1269;72676;-36
2023/11/01 03:27:18;;;;;;;18.00;9.80;;;;;;;13.85;89.11;98339.11;106793;1269;59605;-37
2023/11/01 03:29:46;;;;;;;19.00;9.50;;;;;;;13.83;89.18;98340.23;106676;1264;59579;-36
2023/11/01 03:32:14;;;;;;;17.50;9.20;;;;;;;13.86;89.10;98343.69;106749;1269;73125;-36
2023/11/01 03:34:42;;;;;;;16.70;9.40;;;;;;;13.91;88.90;98348.86;106762;1264;65608;-37
2023/11/01 03:37:09;;;;;;;16.90;9.90;;;;;;;13.92;88.67;98345.96;106702;1267;72824;-37
2023/11/01 03:39:37;;;;;;;17.90;10.60;;;;;;;13.91;88.67;98351.42;106760;1264;59881;-36
2023/11/01 03:42:04;;;;;;;16.00;8.80;;;;;;;13.90;88.46;98348.94;106786;1264;60015;-37
2023/11/01 03:44:32;;;;;;;18.20;8.90;;;;;;;13.95;87.96;98352.40;106758;1264;73054;-37
2023/11/01 03:47:00;;;;;;;18.10;10.60;;;;;;;13.96;87.66;98354.02;106775;1270;67656;-37
2023/11/01 03:49:29;;;;;;;18.00;11.40;;;;;;;13.89;87.57;98357.44;106765;1269;72717;-37
2023/11/01 03:51:58;;;;;;;17.00;10.10;;;;;;;13.81;87.65;98356.20;106856;1261;61903;-37
2023/11/01 03:54:25;;;;;;;17.10;9.20;;;;;;;13.77;87.83;98360.68;106814;1260;60507;-37
2023/11/01 03:56:53;;;;;;;21.70;10.90;;;;;;;13.76;87.76;98364.96;106824;1261;71829;-37
2023/11/01 03:59:21;;;;;;;20.70;11.80;;;;;;;13.69;88.10;98370.10;106813;1261;66657;-37
2023/11/01 04:01:49;;;;;;;20.60;11.10;;;;;;;13.61;88.40;98375.39;106909;1261;72650;-37
2023/11/01 04:04:17;;;;;;;17.50;9.40;;;;;;;13.57;88.58;98374.71;106773;1260;61680;-37
2023/11/01 04:06:44;;;;;;;18.20;11.10;;;;;;;13.57;88.71;98373.55;106923;1266;60049;-37
2023/11/01 04:09:12;;;;;;;19.90;12.20;;;;;;;13.50;89.16;98364.05;107022;1266;73154;-37
2023/11/01 04:11:41;;;;;;;18.60;10.70;;;;;;;13.44;89.91;98360.98;106881;1261;66529;-37
2023/11/01 04:14:08;;;;;;;17.90;9.50;;;;;;;13.44;90.31;98364.88;106834;1260;72753;-36
2023/11/01 04:16:36;;;;;;;22.90;10.90;;;;;;;13.46;90.29;98360.35;106797;1266;59769;-36
2023/11/01 04:19:03;;;;;;;18.40;11.50;;;;;;;13.46;90.38;98354.04;106801;1264;59627;-37
2023/11/01 04:21:31;;;;;;;17.70;11.80;;;;;;;13.44;90.59;98351.73;106807;1270;72230;-37
2023/11/01 04:23:59;;;;;;;23.60;10.30;;;;;;;13.45;90.60;98345.89;106854;1264;66612;-37
2023/11/01 04:26:27;;;;;;;17.70;9.90;;;;;;;13.49;90.22;98338.84;106855;1264;70915;-37
2023/11/01 04:28:55;;;;;;;18.20;11.30;;;;;;;13.52;89.78;98338.13;106843;1263;60093;-37
2023/11/01 04:31:24;;;;;;;20.20;12.80;;;;;;;13.46;89.82;98339.73;106869;1267;60029;-38
2023/11/01 04:33:52;;;;;;;18.10;10.60;;;;;;;13.39;89.96;98344.77;106907;1264;73041;-37
2023/11/01 04:36:26;;;;;;;13.40;9.20;;;;;;;13.38;89.87;98348.36;106875;1266;67137;-37
2023/11/01 04:38:54;;;;;;;18.00;11.40;;;;;;;13.39;89.56;98350.30;106924;1261;72821;-37
2023/11/01 04:41:26;;;;;;;19.60;12.30;;;;;;;13.35;89.74;98361.61;106841;1264;59694;-37
2023/11/01 04:43:55;;;;;;;15.50;11.30;;;;;;;13.29;89.96;98366.09;106809;1261;60069;-37
2023/11/01 04:46:23;;;;;;;16.30;10.00;;;;;;;13.26;90.05;98368.07;106810;1261;73215;-37
2023/11/01 04:48:51;;;;;;;21.30;10.70;;;;;;;13.26;89.86;98363.55;106773;1264;68008;-37
2023/11/01 04:51:19;;;;;;;19.30;11.70;;;;;;;13.24;89.99;98369.39;106858;1263;72639;-37
2023/11/01 04:53:48;;;;;;;20.50;12.70;;;;;;;13.18;90.33;98372.48;106879;1266;59558;-37
2023/11/01 04:56:16;;;;;;;17.20;11.10;;;;;;;13.13;90.42;98372.66;106885;1263;60032;-37
2023/11/01 04:58:44;;;;;;;19.50;10.00;;;;;;;13.14;90.57;98378.26;106899;1262;73238;-37
2023/11/01 05:01:13;;;;;;;16.90;10.40;;;;;;;13.16;90.48;98373.98;106894;1264;67881;-37
2023/11/01 05:03:40;;;;;;;18.10;10.70;;;;;;;13.17;90.50;98379.65;106892;1266;72787;-38
2023/11/01 05:06:10;;;;;;;23.00;13.00;;;;;;;13.15;90.71;98385.48;106849;1264;60053;-37
2023/11/01 05:08:37;;;;;;;21.60;11.80;;;;;;;13.13;90.91;98389.38;106921;1263;59976;-37
2023/11/01 05:11:05;;;;;;;18.70;10.30;;;;;;;13.15;90.91;98395.05;106879;1264;73048;-37
2023/11/01 05:13:32;;;;;;;21.00;10.20;;;;;;;13.17;90.96;98391.06;106866;1266;66319;-38
2023/11/01 05:16:00;;;;;;;20.70;11.60;;;;;;;13.21;90.98;98393.14;106840;1266;72688;-37
2023/11/01 05:18:28;;;;;;;23.30;13.00;;;;;;;13.22;91.00;98390.64;106875;1266;60072;-37
2023/11/01 05:20:56;;;;;;;17.30;10.60;;;;;;;13.21;91.07;98390.58;106786;1261;60073;-37
2023/11/01 05:23:23;;;;;;;15.70;10.20;;;;;;;13.24;91.04;98386.04;106736;1264;73368;-37
2023/11/01 05:25:51;;;;;;;17.70;10.20;;;;;;;13.29;90.73;98388.41;106761;1262;67572;-37
2023/11/01 05:28:19;;;;;;;16.90;11.60;;;;;;;13.32;90.53;98383.64;106749;1263;72676;-37
2023/11/01 05:30:47;;;;;;;24.10;12.00;;;;;;;13.32;90.71;98378.35;106837;1260;59537;-37
2023/11/01 05:33:14;;;;;;;16.50;11.10;;;;;;;13.31;90.71;98382.47;106830;1263;59701;-37
2023/11/01 05:35:43;;;;;;;21.10;10.60;;;;;;;13.34;90.47;98383.70;106895;1264;73080;-37
2023/11/01 05:38:11;;;;;;;17.80;9.90;;;;;;;13.39;90.21;98386.86;106770;1263;67743;-37
2023/11/01 05:40:39;;;;;;;17.10;10.80;;;;;;;13.38;90.16;98395.10;106865;1263;72683;-37
2023/11/01 05:43:07;;;;;;;22.60;11.90;;;;;;;13.34;90.20;98392.80;106873;1266;60089;-37
2023/11/01 05:45:34;;;;;;;17.60;11.10;;;;;;;13.31;90.40;98387.70;106842;1260;59919;-37
2023/11/01 05:48:07;;;;;;;15.30;10.10;;;;;;;13.34;90.22;98392.80;106807;1263;73066;-37
2023/11/01 05:50:36;;;;;;;17.60;10.00;;;;;;;13.39;90.00;98398.75;106869;1264;67661;-37
2023/11/01 05:53:09;;;;;;;17.90;11.30;;;;;;;13.40;89.87;98407.39;106883;1266;71386;-37
2023/11/01 05:55:37;;;;;;;23.40;12.30;;;;;;;13.37;89.86;98409.66;106854;1264;60530;-37
2023/11/01 05:58:25;;;;;;;19.60;10.10;;;;;;;13.35;89.98;98419.72;106861;1264;59494;-37
2023/11/01 06:00:53;;;;;;;20.90;9.70;;;;;;;13.39;89.70;98423.10;106857;1267;72187;-37
2023/11/01 06:03:24;;;;;;;19.80;11.20;;;;;;;13.45;89.50;98425.93;106863;1262;66302;-38
2023/11/01 06:05:52;;;;;;;14.90;11.10;;;;;;;13.47;89.59;98424.42;106821;1261;71462;-37
2023/11/01 06:08:20;;;;;;;16.90;11.40;;;;;;;13.48;89.61;98426.69;106726;1263;60092;-37
2023/11/01 06:10:48;;;;;;;23.90;9.80;;;;;;;13.49;89.40;98432.91;106782;1264;59483;-37
2023/11/01 06:13:15;;;;;;;18.90;9.00;;;;;;;13.54;89.10;98436.45;106741;1264;73087;-37
2023/11/01 06:15:43;;;;;;;16.30;10.20;;;;;;;13.58;89.07;98441.08;106875;1263;67698;-37
2023/11/01 06:18:11;;;;;;;19.80;10.90;;;;;;;13.58;89.15;98440.45;106800;1266;72700;-37
2023/11/01 06:20:38;;;;;;;17.40;10.80;;;;;;;13.58;89.04;98438.83;106866;1264;60124;-38
2023/11/01 06:23:09;;;;;;;18.60;9.10;;;;;;;13.59;88.94;98446.52;106945;1261;59504;-37
2023/11/01 06:25:39;;;;;;;15.40;8.50;;;;;;;13.65;88.65;98453.48;106820;1266;73073;-37
2023/11/01 06:28:08;;;;;;;17.20;10.10;;;;;;;13.69;88.58;98460.77;106983;1261;68059;-37
2023/11/01 06:30:36;;;;;;;16.60;10.30;;;;;;;13.67;88.68;98456.34;106818;1260;72718;-37
2023/11/01 06:33:04;;;;;;;15.40;9.80;;;;;;;13.66;88.87;98456.89;106753;1264;61045;-37
2023/11/01 06:35:32;;;;;;;21.10;9.10;;;;;;;13.71;88.62;98457.40;106858;1260;60155;-37
2023/11/01 06:37:59;;;;;;;17.50;9.50;;;;;;;13.78;88.49;98457.19;106844;1260;72920;-37
2023/11/01 06:40:27;;;;;;;16.60;9.80;;;;;;;13.80;88.49;98456.52;106874;1265;66480;-37
2023/11/01 06:42:54;;;;;;;23.10;11.30;;;;;;;13.82;88.53;98459.71;106980;1261;71527;-37
2023/11/01 06:45:22;;;;;;;17.70;9.70;;;;;;;13.86;88.42;98465.29;106841;1264;60505;-37
2023/11/01 06:47:50;;;;;;;20.60;10.30;;;;;;;13.97;87.93;98459.82;106871;1260;60372;-37
2023/11/01 06:50:17;;;;;;;23.90;12.60;;;;;;;14.02;87.59;98455.57;106845;1260;74239;-37
2023/11/01 06:52:45;;;;;;;25.10;14.00;;;;;;;14.03;87.39;98457.20;106971;1260;67666;-37
2023/11/01 06:55:13;;;;;;;30.00;14.20;;;;;;;14.03;87.12;98459.30;106761;1264;71451;-37
2023/11/01 06:57:41;;;;;;;25.30;13.10;;;;;;;14.07;86.64;98456.91;106921;1260;61691;-37
2023/11/01 07:00:10;;;;;;;23.80;12.10;;;;;;;14.12;86.35;98459.68;106829;1260;60411;-37
2023/11/01 07:02:37;;;;;;;16.30;10.40;;;;;;;14.11;86.38;98460.54;106790;1260;72776;-38
2023/11/01 07:05:05;;;;;;;17.20;8.70;;;;;;;14.10;86.44;98452.60;106972;1260;66821;-37
2023/11/01 07:07:33;;;;;;;15.60;8.20;;;;;;;14.16;85.86;98449.27;106946;1261;72365;-37
2023/11/01 07:10:01;;;;;;;18.00;8.90;;;;;;;14.22;85.53;98449.53;106852;1262;60565;-37
2023/11/01 07:12:29;;;;;;;16.80;9.60;;;;;;;14.22;85.51;98454.36;106999;1260;60370;-37
2023/11/01 07:14:57;;;;;;;20.10;9.50;;;;;;;14.20;85.60;98455.61;106850;1260;72531;-37
2023/11/01 07:17:27;;;;;;;13.10;8.00;;;;;;;14.19;85.52;98454.23;106971;1261;67571;-37
2023/11/01 07:19:56;;;;;;;14.50;7.70;;;;;;;14.26;85.23;98456.42;106816;1260;70411;-37
2023/11/01 07:22:23;;;;;;;15.70;9.10;;;;;;;14.29;85.14;98455.20;106752;1264;61007;-38
2023/11/01 07:24:51;;;;;;;14.90;9.60;;;;;;;14.28;85.40;98452.03;106807;1260;59355;-37
2023/11/01 07:27:19;;;;;;;13.80;8.20;;;;;;;14.27;85.47;98454.08;106823;1260;71830;-37
2023/11/01 07:29:46;;;;;;;19.00;8.20;;;;;;;14.30;85.24;98463.61;106827;1260;67589;-37
2023/11/01 07:32:14;;;;;;;16.10;8.60;;;;;;;14.34;84.99;98467.16;106856;1260;72686;-38
2023/11/01 07:34:42;;;;;;;19.50;9.70;;;;;;;14.33;85.05;98463.27;106844;1264;60418;-37
2023/11/01 07:37:10;;;;;;;15.80;9.30;;;;;;;14.30;85.13;98459.25;106828;1261;60792;-37
2023/11/01 07:39:37;;;;;;;19.00;8.40;;;;;;;14.27;85.15;98449.54;106841;1260;73826;-37
2023/11/01 07:42:05;;;;;;;13.30;6.80;;;;;;;14.32;84.78;98457.36;106790;1264;67754;-37
2023/11/01 07:44:32;;;;;;;15.70;8.10;;;;;;;14.38;84.22;98469.56;106747;1262;72780;-37
2023/11/01 07:47:00;;;;;;;13.60;7.60;;;;;;;14.39;84.16;98477.49;106730;1266;60331;-37
2023/11/01 07:49:28;;;;;;;15.00;7.10;;;;;;;14.37;83.76;98478.62;106790;1262;60574;-37
2023/11/01 07:51:56;;;;;;;13.80;6.40;;;;;;;14.38;83.08;98481.09;106805;1261;74207;-37
2023/11/01 07:54:24;;;;;;;13.80;7.00;;;;;;;14.41;82.25;98480.13;106882;1263;68091;-38
2023/11/01 07:56:51;;;;;;;12.70;7.20;;;;;;;14.41;82.01;98483.24;106841;1263;72704;-38
2023/11/01 07:59:19;;;;;;;12.30;7.30;;;;;;;14.39;81.88;98484.98;106851;1263;60450;-37
2023/11/01 08:01:47;;;;;;;12.80;6.90;;;;;;;14.36;82.02;98489.91;106853;1261;60392;-37
2023/11/01 08:04:17;;;;;;;15.00;7.00;;;;;;;14.38;81.93;98493.02;106831;1261;73878;-37
2023/11/01 08:06:46;;;;;;;12.80;6.70;;;;;;;14.40;82.17;98495.02;106808;1261;67915;-37
2023/11/01 08:09:15;;;;;;;13.20;7.10;;;;;;;14.38;82.47;98494.11;106858;1262;72714;-37
2023/11/01 08:11:43;;;;;;;13.00;7.70;;;;;;;14.32;82.96;98496.00;106819;1263;60927;-38
2023/11/01 08:14:10;;;;;;;15.30;7.60;;;;;;;14.27;83.55;98505.17;106817;1266;62370;-37
2023/11/01 08:16:38;;;;;;;13.70;6.30;;;;;;;14.26;83.82;98513.59;106880;1261;73828;-37
2023/11/01 08:19:06;;;;;;;13.00;7.30;;;;;;;14.26;84.08;98515.77;106828;1261;67293;-38
2023/11/01 08:21:33;;;;;;;16.60;7.90;;;;;;;14.24;84.32;98516.34;106861;1261;71416;-37
2023/11/01 08:24:01;;;;;;;14.20;7.80;;;;;;;14.16;84.79;98520.14;106832;1261;60520;-37
2023/11/01 08:26:28;;;;;;;12.30;6.80;;;;;;;14.08;85.18;98526.85;106758;1261;62108;-37
2023/11/01 08:28:56;;;;;;;16.00;7.00;;;;;;;14.06;85.69;98532.23;106789;1261;73872;-37
2023/11/01 08:31:24;;;;;;;11.30;6.70;;;;;;;14.04;86.06;98532.33;106838;1263;70605;-37
2023/11/01 08:33:51;;;;;;;12.40;7.10;;;;;;;14.06;86.40;98543.76;106835;1263;72759;-37
2023/11/01 08:36:19;;;;;;;16.60;8.10;;;;;;;14.00;86.98;98541.45;106858;1263;60540;-37
2023/11/01 08:38:47;;;;;;;14.30;7.30;;;;;;;13.96;87.30;98540.09;106862;1260;60420;-37
2023/11/01 08:41:14;;;;;;;15.10;6.90;;;;;;;13.96;87.58;98539.46;106868;1266;73893;-37
2023/11/01 08:43:43;;;;;;;14.50;7.30;;;;;;;13.97;87.67;98540.55;106839;1260;68096;-37
2023/11/01 08:46:12;;;;;;;14.30;7.40;;;;;;;13.96;88.02;98540.95;106877;1263;72647;-37
2023/11/01 08:48:41;;;;;;;13.00;6.60;;;;;;;13.93;88.40;98542.55;106872;1261;62284;-37
2023/11/01 08:51:08;;;;;;;16.60;6.60;;;;;;;13.89;88.81;98552.37;106871;1264;60687;-37
2023/11/01 08:53:36;;;;;;;12.40;6.10;;;;;;;13.91;88.91;98555.31;106883;1263;72731;-37
2023/11/01 08:56:05;;;;;;;11.50;6.00;;;;;;;13.94;88.88;98563.23;106836;1266;66678;-37
2023/11/01 08:58:33;;;;;;;12.10;6.20;;;;;;;13.94;89.22;98565.34;106905;1263;74915;-37
2023/11/01 09:01:01;;;;;;;15.20;6.60;;;;;;;13.90;89.66;98564.96;106853;1262;61050;-37
2023/11/01 09:03:29;;;;;;;11.00;5.80;;;;;;;13.87;89.87;98566.02;106859;1261;60300;-37
2023/11/01 09:05:57;;;;;;;13.40;6.20;;;;;;;13.87;90.16;98560.79;106787;1261;74238;-37
2023/11/01 09:08:25;;;;;;;10.70;5.90;;;;;;;13.92;90.23;98567.15;106787;1260;68610;-37
2023/11/01 09:10:53;;;;;;;12.40;6.10;;;;;;;13.91;90.55;98563.64;106846;1260;71513;-37
2023/11/01 09:13:22;;;;;;;16.10;6.60;;;;;;;13.87;91.07;98561.58;106853;1266;60421;-37
2023/11/01 09:15:50;;;;;;;14.10;6.70;;;;;;;13.86;91.47;98559.86;106947;1265;60307;-38
2023/11/01 09:18:20;;;;;;;12.70;5.90;;;;;;;13.91;91.45;98559.83;106883;1260;72729;-37
2023/11/01 09:20:48;;;;;;;10.80;6.40;;;;;;;13.93;91.53;98556.70;106877;1260;66470;-38
2023/11/01 09:23:16;;;;;;;14.20;7.50;;;;;;;13.89;92.05;98553.77;107002;1263;71463;-38
2023/11/01 09:25:44;;;;;;;10.90;6.80;;;;;;;13.86;92.54;98548.42;106867;1261;62096;-38
2023/11/01 09:28:13;;;;;;;10.50;6.50;;;;;;;13.87;92.42;98542.11;107001;1260;60416;-38
2023/11/01 09:30:41;;;;;;;7.30;4.70;;;;;;;13.90;92.47;98535.86;106883;1260;74342;-37
2023/11/01 09:33:08;;;;;;;11.30;6.20;;;;;;;13.90;92.29;98527.67;106839;1266;66447;-37
2023/11/01 09:35:36;;;;;;;14.70;7.00;;;;;;;13.87;92.63;98529.41;106843;1263;74828;-37
2023/11/01 09:38:04;;;;;;;9.10;6.00;;;;;;;13.85;92.87;98529.98;106871;1263;62566;-37
2023/11/01 09:40:32;;;;;;;12.80;5.90;;;;;;;13.85;92.83;98528.72;106843;1260;60152;-38
2023/11/01 09:42:59;;;;;;;9.10;5.40;;;;;;;13.90;92.82;98523.41;106853;1260;73872;-37
2023/11/01 09:45:27;;;;;;;11.30;5.90;;;;;;;13.97;93.17;98517.20;106859;1260;70295;-38
2023/11/01 09:47:55;;;;;;;10.30;6.30;;;;;;;14.02;93.25;98519.34;106810;1260;74850;-37
2023/11/01 09:50:22;;;;;;;10.60;6.70;;;;;;;14.05;93.43;98517.52;106867;1262;60465;-37
2023/11/01 09:52:50;;;;;;;10.20;6.50;;;;;;;14.08;93.45;98520.91;106782;1260;62286;-37
2023/11/01 09:55:19;;;;;;;13.40;6.10;;;;;;;14.15;93.09;98521.09;106806;1260;76058;-37
2023/11/01 09:57:47;;;;;;;13.40;6.50;;;;;;;14.19;92.26;98518.40;106832;1260;69845;-37
2023/11/01 10:00:15;;;;;;;12.80;6.90;;;;;;;14.21;92.37;98519.48;106853;1260;73189;-37
2023/11/01 10:02:43;;;;;;;8.60;6.30;;;;;;;14.19;92.33;98511.39;106766;1260;60485;-37
2023/11/01 10:05:11;;;;;;;11.10;6.10;;;;;;;14.20;92.25;98510.61;106824;1260;61114;-38
2023/11/01 10:07:38;;;;;;;9.60;5.80;;;;;;;14.26;92.17;98512.81;106822;1260;76019;-37
2023/11/01 10:10:07;;;;;;;12.80;5.90;;;;;;;14.29;91.01;98512.30;106816;1260;69705;-37
2023/11/01 10:12:35;;;;;;;10.60;6.40;;;;;;;14.28;90.86;98510.14;106832;1260;73079;-37
2023/11/01 10:15:03;;;;;;;12.50;6.00;;;;;;;14.23;90.74;98506.84;106821;1260;60551;-37
2023/11/01 10:17:31;;;;;;;10.20;6.00;;;;;;;14.22;90.63;98500.85;106851;1266;60987;-38
2023/11/01 10:19:58;;;;;;;9.00;5.40;;;;;;;14.25;90.54;98505.34;106885;1260;73785;-37
2023/11/01 10:22:32;;;;;;;10.70;6.60;;;;;;;14.24;90.05;98502.62;107031;1260;67211;-37
2023/11/01 10:25:01;;;;;;;10.80;6.10;;;;;;;14.18;90.55;98499.33;106891;1263;71194;-37
2023/11/01 10:27:29;;;;;;;10.60;6.00;;;;;;;14.16;90.88;98500.76;107003;1261;62222;-38
2023/11/01 10:29:56;;;;;;;8.40;5.50;;;;;;;14.19;90.64;98501.88;106834;1265;60358;-37
2023/11/01 10:32:24;;;;;;;13.20;7.20;;;;;;;14.20;90.31;98496.66;106772;1260;72720;-37
2023/11/01 10:34:52;;;;;;;16.50;7.20;;;;;;;14.17;90.28;98496.39;106884;1260;69908;-37
2023/11/01 10:37:20;;;;;;;9.30;6.80;;;;;;;14.11;90.16;98496.98;106964;1260;73677;-38
2023/11/01 10:39:51;;;;;;;12.20;7.00;;;;;;;14.10;90.35;98502.20;106861;1260;61690;-37
2023/11/01 10:42:19;;;;;;;9.40;6.20;;;;;;;14.11;90.26;98500.18;106808;1267;60331;-38
2023/11/01 10:44:46;;;;;;;14.80;7.20;;;;;;;14.11;90.35;98498.16;106808;1266;73998;-37
2023/11/01 10:47:14;;;;;;;10.80;6.60;;;;;;;14.07;90.79;98497.73;106994;1261;67904;-38
2023/11/01 10:49:42;;;;;;;11.90;6.80;;;;;;;14.04;91.27;98500.09;106844;1260;72369;-37
2023/11/01 10:52:10;;;;;;;11.30;6.40;;;;;;;14.04;91.30;98499.55;106897;1263;62660;-37
2023/11/01 10:54:37;;;;;;;15.90;7.00;;;;;;;14.05;91.44;98503.02;106906;1260;62072;-37
2023/11/01 10:57:05;;;;;;;10.40;7.40;;;;;;;14.04;91.36;98504.67;106892;1260;74176;-38
2023/11/01 10:59:43;;;;;;;10.40;7.50;;;;;;;14.01;91.59;98504.39;107022;1260;66694;-37
2023/11/01 11:02:18;;;;;;;10.80;7.40;;;;;;;13.99;91.99;98509.16;106869;1261;74859;-37
2023/11/01 11:04:54;;;;;;;10.20;6.50;;;;;;;14.01;91.72;98518.88;106853;1261;62014;-37
2023/11/01 11:07:43;;;;;;;9.90;7.00;;;;;;;14.03;92.14;98523.08;106889;1260;59301;-37
2023/11/01 11:10:27;;;;;;;;;;;;;;;14.06;92.32;98519.38;106897;1261;74860;-38
2023/11/01 11:13:21;;;;;;;15.10;8.40;;;;;;;14.05;92.41;98516.11;106789;1260;68364;-37
2023/11/01 11:15:50;;;;;;;15.70;7.80;;;;;;;14.04;92.20;98514.56;106760;1260;72591;-37
2023/11/01 11:18:21;;;;;;;;;;;;;;;14.09;92.02;98510.17;106802;1261;63801;-37
2023/11/01 11:20:52;;;;;;;14.00;7.10;;;;;;;14.14;91.46;98507.55;106825;1260;60369;-37
2023/11/01 11:23:30;;;;;;;12.70;7.40;;;;;;;14.16;91.31;98513.22;106834;1260;76091;-37